Time;durP1;ratioP1;P1;durP2;ratioP2;P2;SDS_P1;SDS_P2;PMS_P1;PMS_P2;Temp;Humidity;BMP_temperature;BMP_pressure;BME280_temperature;BME280_humidity;BME280_pressure;Samples;Min_cycle;Max_cycle;Signal;HPM_P1;HPM_P2
2021/05/04 00:00:22;;;;;;;7.38;3.25;;;13.50;48.60;;;12.32;43.75;99349.22;5008820;28;20049;-83
2021/05/04 00:02:59;;;;;;;6.25;2.92;;;13.50;48.80;;;12.32;43.28;99338.31;5008600;28;20042;-83
2021/05/04 00:05:37;;;;;;;6.82;3.08;;;13.50;48.50;;;12.27;42.96;99340.88;5008817;28;20058;-83
2021/05/04 00:08:18;;;;;;;4.63;2.75;;;13.50;48.10;;;12.29;43.45;99315.03;5008909;28;20129;-82
2021/05/04 00:10:54;;;;;;;5.05;2.85;;;13.50;48.60;;;12.32;43.47;99313.75;5008836;28;20038;-83
2021/05/04 00:13:34;;;;;;;8.40;3.30;;;13.50;48.80;;;12.32;43.44;99294.66;5008396;28;20046;-83
2021/05/04 00:16:12;;;;;;;4.45;2.78;;;13.50;48.50;;;12.32;43.06;99291.94;5008650;28;20065;-83
2021/05/04 00:18:48;;;;;;;6.28;2.72;;;13.50;48.30;;;12.33;43.23;99277.22;5008443;28;20050;-83
2021/05/04 00:21:26;;;;;;;6.93;3.10;;;13.50;48.50;;;12.37;43.39;99275.69;5008500;28;20049;-83
2021/05/04 00:24:04;;;;;;;6.40;2.60;;;13.50;48.20;;;12.35;43.56;99272.38;5008310;28;20064;-83
2021/05/04 00:26:40;;;;;;;6.07;2.95;;;13.50;48.50;;;12.36;43.51;99260.41;5008724;28;20530;-83
2021/05/04 00:29:12;;;;;;;6.78;2.92;;;13.50;48.60;;;12.35;43.25;99256.00;5008664;28;20413;-83
2021/05/04 00:31:50;;;;;;;8.07;3.05;;;13.50;48.20;;;12.32;43.33;99234.66;5008363;28;20638;-83
2021/05/04 00:34:28;;;;;;;6.13;3.00;;;13.60;48.10;;;12.35;43.41;99244.25;4990861;28;20060;-83
2021/05/04 00:37:09;;;;;;;5.00;2.80;;;13.50;48.30;;;12.36;43.17;99235.84;5008690;28;20052;-83
2021/05/04 00:39:46;;;;;;;5.20;2.80;;;13.60;48.50;;;12.35;43.36;99209.63;5008462;28;20046;-83
2021/05/04 00:42:23;;;;;;;9.27;2.65;;;13.60;48.10;;;12.36;43.31;99216.75;4990522;28;20042;-83
2021/05/04 00:45:02;;;;;;;5.68;2.75;;;13.60;48.10;;;12.35;43.52;99203.34;5007048;28;20104;-83
2021/05/04 00:47:40;;;;;;;6.53;3.10;;;13.60;48.40;;;12.36;43.75;99197.66;5008595;28;20387;-83
2021/05/04 00:50:14;;;;;;;5.90;2.95;;;13.60;48.50;;;12.38;44.11;99194.72;5008711;28;20057;-83
2021/05/04 00:52:54;;;;;;;7.95;2.55;;;13.60;48.70;;;12.36;43.65;99186.75;5002373;28;20045;-83
2021/05/04 00:55:35;;;;;;;11.25;2.55;;;13.60;48.30;;;12.36;43.40;99167.66;5031876;28;20074;-83
2021/05/04 00:58:12;;;;;;;7.90;3.42;;;13.60;48.40;;;12.40;43.60;99166.13;5031863;28;20451;-83
2021/05/04 01:00:45;;;;;;;7.35;2.58;;;13.60;48.70;;;12.36;43.31;99154.00;5031700;28;20084;-83
2021/05/04 01:03:23;;;;;;;9.48;2.90;;;13.60;48.30;;;12.37;43.49;99141.19;5031400;28;20052;-84
2021/05/04 01:06:01;;;;;;;4.65;2.55;;;13.60;48.30;;;12.39;43.75;99131.69;5031710;28;20069;-83
2021/05/04 01:08:37;;;;;;;11.43;2.53;;;13.60;48.60;;;12.40;43.93;99122.47;5013857;28;20049;-83
2021/05/04 01:11:15;;;;;;;7.28;2.72;;;13.60;48.80;;;12.38;43.74;99132.78;5013632;28;20414;-83
2021/05/04 01:13:59;;;;;;;5.32;2.40;;;13.60;48.70;;;12.37;43.53;99120.19;5028159;28;20045;-83
2021/05/04 01:16:36;;;;;;;7.05;2.30;;;13.60;48.50;;;12.38;43.52;99107.41;5011377;28;20167;-83
2021/05/04 01:19:15;;;;;;;6.25;2.53;;;13.60;48.50;;;12.37;43.62;99095.63;5010106;28;20472;-83
2021/05/04 01:21:51;;;;;;;6.93;2.45;;;13.60;48.40;;;12.42;43.75;99097.69;5011103;28;20112;-83
2021/05/04 01:24:28;;;;;;;4.68;2.47;;;13.60;48.80;;;12.44;44.31;99090.94;5011082;28;20048;-83
2021/05/04 01:27:04;;;;;;;5.63;2.78;;;13.60;49.00;;;12.42;43.67;99090.31;5011582;28;20104;-82
2021/05/04 01:29:39;;;;;;;5.57;2.30;;;13.60;48.80;;;12.43;43.98;99088.44;5011103;28;20050;-83
2021/05/04 01:32:14;;;;;;;7.18;2.28;;;13.60;49.20;;;12.44;43.67;99074.56;5011179;28;20453;-83
2021/05/04 01:34:53;;;;;;;4.65;2.65;;;13.60;49.10;;;12.42;44.64;99076.69;5011285;28;20077;-83
2021/05/04 01:37:25;;;;;;;8.13;2.40;;;13.60;49.40;;;12.40;44.25;99076.09;5011469;28;20069;-83
2021/05/04 01:40:04;;;;;;;3.95;2.33;;;13.60;49.10;;;12.40;44.02;99048.81;4993631;28;20301;-83
2021/05/04 01:42:45;;;;;;;7.03;2.42;;;13.60;49.20;;;12.43;44.02;99051.09;4993140;28;20057;-83
2021/05/04 01:45:21;;;;;;;10.90;2.70;;;13.60;49.30;;;12.43;44.11;99040.16;5011280;28;20076;-83
2021/05/04 01:47:59;;;;;;;4.43;2.28;;;13.60;49.10;;;12.45;44.27;99048.94;5011199;28;20096;-83
2021/05/04 01:50:37;;;;;;;5.65;2.50;;;13.60;49.40;;;12.41;44.14;99034.09;5011032;28;20103;-83
2021/05/04 01:53:21;;;;;;;6.22;2.17;;;13.60;49.00;;;12.43;44.10;99034.72;5009232;28;20524;-83
2021/05/04 01:55:58;;;;;;;4.05;2.08;;;13.60;49.10;;;12.44;44.56;99019.97;5011017;28;20050;-83
2021/05/04 01:58:36;;;;;;;10.00;2.17;;;13.60;49.60;;;12.43;44.82;99034.72;5010920;28;20116;-83
2021/05/04 02:01:14;;;;;;;3.63;2.00;;;13.60;49.90;;;12.45;44.58;99018.94;5010856;28;20038;-83
2021/05/04 02:03:49;;;;;;;4.75;1.90;;;13.60;49.70;;;12.45;44.78;99038.03;5009764;28;20049;-83
2021/05/04 02:06:27;;;;;;;10.10;2.00;;;13.60;49.90;;;12.43;44.61;99036.59;5010456;28;20050;-83
2021/05/04 02:09:07;;;;;;;5.53;1.98;;;13.60;50.10;;;12.41;45.74;99014.97;5010364;28;20065;-83
2021/05/04 02:11:45;;;;;;;5.00;1.80;;;13.60;50.50;;;12.38;46.19;99015.47;5010549;28;20402;-83
2021/05/04 02:14:23;;;;;;;8.35;2.00;;;13.60;51.20;;;12.39;45.80;99019.84;5010624;28;20081;-83
2021/05/04 02:16:58;;;;;;;5.38;1.90;;;13.50;51.10;;;12.39;45.70;99019.84;5010665;28;20046;-83
2021/05/04 02:19:37;;;;;;;7.57;2.88;;;13.60;51.00;;;12.30;46.78;99013.09;5010522;28;20053;-83
2021/05/04 02:22:15;;;;;;;10.52;2.33;;;13.50;51.60;;;12.26;48.25;99020.03;5010138;28;20042;-83
2021/05/04 02:24:48;;;;;;;9.95;1.60;;;13.40;52.80;;;12.28;49.07;99020.66;5010360;28;20153;-83
2021/05/04 02:27:26;;;;;;;5.57;1.63;;;13.40;53.70;;;12.22;50.33;99006.06;5010371;28;20049;-82
2021/05/04 02:30:04;;;;;;;15.65;1.60;;;13.40;53.90;;;12.24;50.49;99014.00;5010095;28;20049;-83
2021/05/04 02:32:39;;;;;;;10.07;1.80;;;13.30;54.70;;;12.17;49.71;99018.75;5009879;28;20046;-83
2021/05/04 02:35:19;;;;;;;7.03;1.40;;;13.30;54.40;;;12.20;50.22;99026.44;5010291;28;20058;-82
2021/05/04 02:37:51;;;;;;;18.23;1.70;;;13.20;54.60;;;12.10;50.63;99030.53;5008805;28;20049;-83
2021/05/04 02:40:35;;;;;;;12.88;1.85;;;13.20;54.60;;;12.08;52.71;99020.94;5010194;28;20096;-83
2021/05/04 02:43:13;;;;;;;10.35;2.38;;;13.10;57.70;;;12.00;53.89;99013.09;5009819;28;20104;-83
2021/05/04 02:45:48;;;;;;;11.90;2.05;;;13.10;59.20;;;11.86;56.29;99012.41;5010192;28;20046;-83
2021/05/04 02:48:23;;;;;;;12.75;2.08;;;13.00;60.90;;;11.70;57.40;99014.69;5010031;28;20495;-83
2021/05/04 02:51:04;;;;;;;14.93;1.90;;;12.90;61.80;;;11.73;58.75;99014.25;5009866;28;20100;-83
2021/05/04 02:53:40;;;;;;;7.05;1.92;;;12.80;64.10;;;11.60;59.03;98995.34;5009791;28;20042;-82
2021/05/04 02:56:17;;;;;;;9.75;1.63;;;12.70;64.20;;;11.53;59.16;98998.13;5009894;28;20096;-83
2021/05/04 02:58:55;;;;;;;8.32;1.67;;;12.60;64.70;;;11.48;59.45;99008.91;5009882;28;20081;-83
2021/05/04 03:01:32;;;;;;;6.50;1.85;;;12.50;65.20;;;11.49;60.84;98990.66;5009598;28;20143;-83
2021/05/04 03:04:11;;;;;;;6.82;1.55;;;12.50;66.40;;;11.51;61.19;98983.91;5007896;28;20084;-82
2021/05/04 03:06:49;;;;;;;9.38;1.40;;;12.50;67.40;;;11.46;62.16;98975.59;5029419;28;20045;-83
2021/05/04 03:09:26;;;;;;;3.42;1.40;;;12.40;67.80;;;11.46;62.16;98964.72;5029466;28;20037;-83
2021/05/04 03:12:05;;;;;;;8.23;1.90;;;12.30;68.80;;;11.44;62.63;98957.81;5028762;28;20037;-83
2021/05/04 03:14:41;;;;;;;5.47;1.40;;;12.30;69.50;;;11.25;62.86;98965.16;5028463;28;20096;-83
2021/05/04 03:17:16;;;;;;;5.78;1.70;;;12.20;69.00;;;11.25;63.20;98954.25;5029181;28;20056;-83
2021/05/04 03:19:54;;;;;;;6.03;1.33;;;12.20;69.40;;;11.26;64.50;98958.66;5029245;28;20052;-83
2021/05/04 03:22:32;;;;;;;4.57;1.55;;;12.10;71.30;;;11.26;64.50;98959.50;5011041;28;20050;-83
2021/05/04 03:25:11;;;;;;;6.13;1.75;;;12.10;71.70;;;11.26;65.05;98958.66;5029155;28;20076;-83
2021/05/04 03:27:57;;;;;;;3.78;1.58;;;12.20;72.80;;;11.22;65.36;98963.72;5029210;28;20064;-83
2021/05/04 03:30:35;;;;;;;8.38;1.58;;;12.00;72.70;;;11.29;65.05;98969.09;5028914;28;20054;-83
2021/05/04 03:33:14;;;;;;;5.70;1.30;;;11.90;73.50;;;11.22;65.25;98963.72;5028265;28;20053;-83
2021/05/04 03:35:52;;;;;;;5.45;1.70;;;11.90;73.40;;;11.17;65.67;98968.19;5028937;28;20041;-83
2021/05/04 03:38:30;;;;;;;7.22;1.63;;;11.80;74.30;;;11.19;65.85;98964.16;5029105;28;20075;-83
2021/05/04 03:41:08;;;;;;;7.88;1.77;;;11.80;74.60;;;11.18;65.81;98959.81;5028696;28;20049;-83
2021/05/04 03:43:44;;;;;;;4.05;1.45;;;11.70;75.30;;;11.16;66.45;98961.91;5028618;28;20100;-83
2021/05/04 03:46:20;;;;;;;4.97;1.60;;;11.70;75.30;;;11.15;66.87;98960.25;5028863;28;20037;-83
2021/05/04 03:48:58;;;;;;;6.28;1.90;;;11.70;75.60;;;11.08;66.41;98951.31;5028904;28;20057;-83
2021/05/04 03:51:36;;;;;;;5.97;1.80;;;11.70;75.40;;;11.00;67.02;98946.19;5028539;28;20045;-83
2021/05/04 03:54:14;;;;;;;3.85;2.05;;;11.60;75.50;;;10.96;67.63;98952.06;5028529;28;20045;-83
2021/05/04 03:56:50;;;;;;;8.50;2.10;;;11.70;76.20;;;10.99;68.14;98942.63;5010954;28;20053;-83
2021/05/04 03:59:29;;;;;;;5.13;2.10;;;11.60;77.20;;;10.94;68.44;98937.84;5028738;28;20049;-83
2021/05/04 04:02:06;;;;;;;7.10;2.28;;;11.50;76.90;;;10.85;68.26;98925.63;5028407;28;20045;-83
2021/05/04 04:04:44;;;;;;;5.68;1.90;;;11.50;76.60;;;10.84;68.29;98913.06;5028577;28;20045;-83
2021/05/04 04:07:22;;;;;;;6.28;1.70;;;11.50;77.10;;;10.87;67.79;98901.72;5028734;28;20057;-83
2021/05/04 04:10:00;;;;;;;3.63;1.80;;;11.50;76.90;;;10.84;67.92;98895.91;5028512;28;20520;-83
2021/05/04 04:12:38;;;;;;;6.40;1.83;;;11.50;77.10;;;10.75;67.74;98898.06;5028187;28;20041;-83
2021/05/04 04:15:16;;;;;;;4.30;1.80;;;11.40;76.20;;;10.80;68.15;98900.13;5028534;28;20049;-82
2021/05/04 04:17:54;;;;;;;5.07;1.83;;;11.40;76.40;;;10.81;67.78;98901.78;5028621;28;20053;-83
2021/05/04 04:20:28;;;;;;;4.93;1.63;;;11.40;76.50;;;10.86;67.93;98893.78;5028427;28;20041;-82
2021/05/04 04:23:06;;;;;;;3.67;1.70;;;11.40;77.20;;;10.79;68.33;98903.91;5028020;28;20053;-83
2021/05/04 04:25:42;;;;;;;3.42;1.50;;;11.40;77.10;;;10.81;68.19;98894.44;5029357;28;20419;-83
2021/05/04 04:28:17;;;;;;;7.15;1.67;;;11.40;76.90;;;10.79;67.90;98898.47;5032456;28;20045;-83
2021/05/04 04:30:55;;;;;;;3.92;1.70;;;11.40;76.90;;;10.71;68.29;98896.88;5032223;28;20107;-83
2021/05/04 04:33:30;;;;;;;9.93;2.08;;;11.40;76.90;;;10.74;68.79;98877.38;5031945;28;20048;-83
2021/05/04 04:36:05;;;;;;;3.92;1.70;;;11.40;77.20;;;10.78;67.83;98866.88;5032288;28;20042;-83
2021/05/04 04:38:44;;;;;;;4.55;2.00;;;11.30;76.80;;;10.75;67.95;98860.81;5032289;28;20158;-83
2021/05/04 04:41:22;;;;;;;4.97;1.83;;;11.30;77.00;;;10.77;68.20;98857.88;5032110;28;20059;-83
2021/05/04 04:43:59;;;;;;;3.33;1.67;;;11.30;77.30;;;10.79;67.89;98858.47;5031621;28;20061;-83
2021/05/04 04:46:44;;;;;;;4.72;1.70;;;11.30;77.10;;;10.75;68.11;98859.97;5032146;28;20516;-83
2021/05/04 04:49:22;;;;;;;5.43;1.60;;;11.30;77.10;;;10.76;67.98;98845.34;5032071;28;20061;-83
2021/05/04 04:52:00;;;;;;;5.18;1.67;;;11.30;77.00;;;10.78;67.72;98847.84;5031499;28;20042;-83
2021/05/04 04:54:38;;;;;;;7.82;1.90;;;11.30;76.80;;;10.73;67.46;98833.00;5028603;28;20595;-83
2021/05/04 04:57:16;;;;;;;4.38;1.83;;;11.30;76.50;;;10.76;67.32;98826.28;5013990;28;20342;-83
2021/05/04 04:59:49;;;;;;;5.22;1.75;;;11.40;76.30;;;10.77;67.27;98827.94;5031814;28;20049;-83
2021/05/04 05:02:26;;;;;;;5.88;1.80;;;11.40;76.10;;;10.69;67.03;98817.38;5031422;28;20548;-82
2021/05/04 05:05:04;;;;;;;4.45;1.60;;;11.40;75.70;;;10.68;67.16;98827.44;5031749;28;20052;-83
2021/05/04 05:07:42;;;;;;;3.63;1.60;;;11.40;75.50;;;10.72;67.00;98820.47;5031822;28;20073;-83
2021/05/04 05:10:17;;;;;;;6.00;1.92;;;11.40;75.60;;;10.73;66.35;98824.00;5031691;28;20104;-83
2021/05/04 05:12:54;;;;;;;4.28;1.60;;;11.40;75.10;;;10.72;66.12;98817.75;5013206;28;20049;-83
2021/05/04 05:15:39;;;;;;;9.45;1.65;;;11.40;74.80;;;10.73;66.56;98815.84;5031091;28;20132;-83
2021/05/04 05:18:17;;;;;;;4.30;1.60;;;11.40;75.10;;;10.74;66.34;98801.19;5031098;28;20042;-84
2021/05/04 05:20:52;;;;;;;4.22;1.95;;;11.40;75.20;;;10.75;66.14;98802.84;5031362;28;20048;-77
2021/05/04 05:23:35;;;;;;;5.35;1.58;;;11.40;74.90;;;10.70;65.79;98797.25;5038917;22;20046;-78
2021/05/04 05:26:11;;;;;;;4.18;1.50;;;11.40;74.70;;;10.73;65.73;98788.63;4952756;28;20097;-81
2021/05/04 05:28:49;;;;;;;4.63;1.50;;;11.50;74.70;;;10.76;65.77;98763.72;4960163;28;20766;-81
2021/05/04 05:31:26;;;;;;;4.03;1.52;;;11.40;74.70;;;10.73;65.15;98769.59;4972411;28;20038;-82
2021/05/04 05:34:09;;;;;;;6.30;1.60;;;11.40;74.30;;;10.81;65.31;98782.88;4958248;28;20050;-81
2021/05/04 05:36:47;;;;;;;5.65;1.90;;;11.40;74.60;;;10.80;65.95;98781.22;4971905;28;20058;-81
2021/05/04 05:39:23;;;;;;;3.58;1.60;;;11.30;75.20;;;10.66;66.68;98787.88;4972342;28;20054;-80
2021/05/04 05:42:01;;;;;;;4.80;1.80;;;11.30;75.30;;;10.68;66.52;98791.19;4971904;28;20047;-80
2021/05/04 05:44:40;;;;;;;6.00;2.08;;;11.40;75.40;;;10.69;66.61;98793.69;4972004;28;20443;-80
2021/05/04 05:47:18;;;;;;;3.83;1.60;;;11.30;75.70;;;10.70;67.23;98789.09;4956999;28;20567;-81
2021/05/04 05:49:57;;;;;;;3.22;1.60;;;11.40;76.30;;;10.67;67.93;98782.22;4953052;29;20051;-80
2021/05/04 05:52:35;;;;;;;6.15;1.95;;;11.30;76.90;;;10.64;68.47;98773.69;4952122;29;20415;-81
2021/05/04 05:55:13;;;;;;;4.90;2.10;;;11.30;77.30;;;10.60;68.59;98762.41;4952717;29;20054;-79
2021/05/04 05:57:51;;;;;;;3.85;1.70;;;11.30;77.30;;;10.49;69.08;98769.47;4951261;29;20074;-78
2021/05/04 06:00:30;;;;;;;6.50;2.10;;;11.20;77.50;;;10.51;69.40;98774.69;4951171;29;20502;-78
2021/05/04 06:03:08;;;;;;;5.68;2.08;;;11.20;78.00;;;10.55;69.18;98767.72;4952144;29;20101;-78
2021/05/04 06:05:48;;;;;;;5.70;1.90;;;11.20;78.00;;;10.53;68.25;98769.84;4952538;29;20047;-77
2021/05/04 06:08:27;;;;;;;3.70;1.85;;;11.20;77.40;;;10.54;68.54;98764.16;4952444;29;20051;-78
2021/05/04 06:11:04;;;;;;;4.22;1.60;;;11.20;77.60;;;10.60;68.38;98769.75;4952094;29;20047;-78
2021/05/04 06:13:44;;;;;;;4.43;1.88;;;11.20;77.80;;;10.59;68.50;98759.94;4952041;29;20086;-79
2021/05/04 06:16:19;;;;;;;4.85;1.77;;;11.20;77.90;;;10.58;67.82;98759.09;4949234;28;20035;-79
2021/05/04 06:18:57;;;;;;;3.95;1.67;;;11.20;77.10;;;10.59;67.43;98757.22;4949278;28;20575;-79
2021/05/04 06:21:36;;;;;;;4.60;1.60;;;11.20;76.60;;;10.54;67.33;98771.50;4951367;29;20069;-79
2021/05/04 06:24:15;;;;;;;3.90;1.80;;;11.20;76.40;;;10.50;67.14;98760.25;4950882;29;20046;-80
2021/05/04 06:26:53;;;;;;;3.63;1.67;;;11.20;76.20;;;10.48;67.12;98740.59;4951520;28;20051;-79
2021/05/04 06:29:31;;;;;;;8.00;1.92;;;11.20;76.00;;;10.49;67.32;98731.41;4951838;29;20055;-79
2021/05/04 06:32:09;;;;;;;5.53;2.65;;;11.20;76.10;;;10.51;67.52;98740.16;4951474;29;20126;-80
2021/05/04 06:34:51;;;;;;;4.18;1.80;;;11.30;76.20;;;10.51;67.60;98742.06;4951606;29;20055;-79
2021/05/04 06:37:35;;;;;;;6.45;1.60;;;11.30;76.30;;;10.53;68.06;98727.16;4932697;29;20082;-79
2021/05/04 06:40:12;;;;;;;5.25;1.65;;;11.30;76.30;;;10.53;68.18;98726.34;4932236;29;20783;-78
2021/05/04 06:42:50;;;;;;;3.80;1.50;;;11.40;76.00;;;10.59;67.71;98732.75;4932529;29;20400;-79
2021/05/04 06:45:28;;;;;;;4.70;1.63;;;11.40;76.30;;;10.59;67.48;98735.47;4936788;28;20054;-81
2021/05/04 06:48:06;;;;;;;5.55;1.60;;;11.40;76.00;;;10.67;67.76;98748.75;4946002;28;20051;-81
2021/05/04 06:50:44;;;;;;;2.92;1.50;;;11.50;76.40;;;10.72;67.71;98743.47;4951292;29;20496;-81
2021/05/04 06:53:27;;;;;;;3.33;1.40;;;11.40;76.20;;;10.76;67.94;98752.81;4950263;29;20046;-80
2021/05/04 06:56:05;;;;;;;5.28;1.73;;;11.50;76.90;;;10.66;70.10;98753.38;4951435;29;20043;-81
2021/05/04 06:58:43;;;;;;;4.35;1.75;;;11.50;78.30;;;10.63;71.40;98748.38;4951587;29;20053;-82
2021/05/04 07:01:18;;;;;;;4.55;1.80;;;11.50;78.90;;;10.68;71.59;98744.94;4948113;29;20085;-81
2021/05/04 07:03:52;;;;;;;4.47;1.33;;;11.50;79.50;;;10.75;71.33;98745.69;4951110;29;20057;-79
2021/05/04 07:06:28;;;;;;;3.80;1.52;;;11.50;79.80;;;10.74;72.34;98734.00;4951370;29;20198;-77
2021/05/04 07:09:07;;;;;;;5.18;1.50;;;11.50;80.10;;;10.75;72.95;98734.81;4951225;29;20455;-77
2021/05/04 07:11:42;;;;;;;5.05;1.60;;;11.60;80.10;;;10.76;73.16;98731.88;4951042;29;20072;-77
2021/05/04 07:14:18;;;;;;;5.05;1.60;;;11.60;80.70;;;10.77;73.78;98743.56;4950385;29;20043;-77
2021/05/04 07:16:56;;;;;;;4.20;1.70;;;11.60;81.10;;;10.69;73.45;98708.53;4951129;29;20043;-78
2021/05/04 07:19:37;;;;;;;2.90;1.50;;;11.60;80.50;;;10.77;73.61;98719.09;4950839;28;20054;-79
2021/05/04 07:22:15;;;;;;;6.45;1.75;;;11.70;80.80;;;10.83;73.48;98718.16;4949090;29;20036;-77
2021/05/04 07:24:55;;;;;;;5.63;1.65;;;11.70;80.90;;;10.83;73.49;98706.47;4950099;29;20093;-77
2021/05/04 07:27:30;;;;;;;5.13;1.75;;;11.80;80.80;;;10.86;72.80;98698.66;4950892;29;20062;-77
2021/05/04 07:30:06;;;;;;;6.10;1.60;;;11.70;80.60;;;10.81;72.46;98705.84;4950944;29;20051;-77
2021/05/04 07:32:41;;;;;;;4.70;1.40;;;11.70;79.80;;;10.81;72.81;98712.13;4950716;29;20376;-77
2021/05/04 07:35:15;;;;;;;4.10;1.60;;;11.70;80.20;;;10.81;72.48;98717.56;4950911;29;20047;-78
2021/05/04 07:37:55;;;;;;;5.20;1.27;;;11.80;79.80;;;10.82;72.74;98713.78;4950940;28;20043;-77
2021/05/04 07:40:39;;;;;;;3.90;1.52;;;11.80;79.60;;;10.82;73.13;98727.41;4950797;29;20054;-77
2021/05/04 07:43:16;;;;;;;2.88;1.30;;;11.80;80.70;;;10.83;73.61;98677.34;4950520;29;20043;-77
2021/05/04 07:45:51;;;;;;;3.85;1.60;;;11.80;80.80;;;10.87;74.00;98710.38;4950410;28;20394;-77
2021/05/04 07:48:29;;;;;;;4.80;1.42;;;11.80;80.70;;;10.81;74.14;98712.13;4950720;29;20051;-77
2021/05/04 07:51:08;;;;;;;4.95;1.45;;;11.80;81.20;;;10.84;73.89;98717.13;4950758;29;20074;-77
2021/05/04 07:53:46;;;;;;;4.60;1.95;;;11.90;80.80;;;10.83;73.92;98699.13;4950386;29;20043;-77
2021/05/04 07:56:25;;;;;;;5.25;1.55;;;11.90;80.70;;;10.80;74.36;98721.38;4950724;29;20043;-77
2021/05/04 07:59:03;;;;;;;4.90;1.95;;;11.90;80.80;;;10.84;74.26;98702.69;4946261;28;20094;-77
2021/05/04 08:01:35;;;;;;;6.90;1.60;;;11.90;80.90;;;10.85;74.88;98680.69;4931895;29;20102;-79
2021/05/04 08:04:14;;;;;;;2.55;1.35;;;12.00;81.60;;;10.93;75.22;98704.84;4950258;29;20050;-78
2021/05/04 08:06:52;;;;;;;3.83;2.22;;;12.00;81.70;;;10.98;74.91;98692.44;4950684;29;20524;-78
2021/05/04 08:09:30;;;;;;;5.00;1.40;;;12.10;80.90;;;11.04;73.96;98699.66;4950700;29;20069;-78
2021/05/04 08:12:12;;;;;;;6.15;1.25;;;12.10;80.50;;;11.01;73.55;98711.03;4950168;29;20075;-78
2021/05/04 08:14:38;;;;;;;;;;;12.10;80.20;;;11.02;74.61;98696.34;4950929;29;20043;-78
2021/05/04 08:17:19;;;;;;;5.15;1.35;;;12.10;80.50;;;10.98;75.13;98712.31;4950528;29;19927;-78
2021/05/04 08:20:00;;;;;;;5.72;1.40;;;12.20;80.80;;;10.98;75.28;98714.22;4950588;29;20492;-78
2021/05/04 08:22:38;;;;;;;5.23;1.47;;;12.20;81.00;;;11.03;74.85;98707.00;4950132;29;20050;-78
2021/05/04 08:25:12;;;;;;;6.20;1.50;;;12.20;80.70;;;10.97;74.52;98716.09;4950376;29;20298;-78
2021/05/04 08:27:48;;;;;;;5.53;1.42;;;12.20;80.90;;;10.91;75.08;98701.53;4932969;29;20055;-78
2021/05/04 08:30:21;;;;;;;5.20;1.45;;;12.10;81.50;;;10.93;75.04;98695.88;4933080;29;20600;-78
2021/05/04 08:32:57;;;;;;;3.25;1.40;;;12.10;81.20;;;11.02;74.88;98693.63;4949887;29;20044;-78
2021/05/04 08:35:34;;;;;;;5.88;1.23;;;12.10;81.00;;;11.06;75.62;98671.16;4950338;29;20098;-78
2021/05/04 08:38:11;;;;;;;3.20;1.30;;;12.20;81.90;;;11.10;75.15;98676.94;4932756;29;20078;-78
2021/05/04 08:40:49;;;;;;;6.20;1.30;;;12.20;81.50;;;11.15;75.00;98658.84;4966694;28;20454;-78
2021/05/04 08:43:32;;;;;;;3.50;1.40;;;12.20;81.50;;;11.24;74.19;98672.13;4969035;28;20043;-78
2021/05/04 08:46:08;;;;;;;4.18;1.50;;;12.20;81.10;;;11.27;74.57;98668.94;4969504;28;20058;-78
2021/05/04 08:48:48;;;;;;;3.05;1.40;;;12.30;81.70;;;11.27;74.13;98655.31;4969519;28;20049;-77
2021/05/04 08:51:27;;;;;;;4.07;1.60;;;12.30;81.00;;;11.28;73.28;98656.97;4968006;28;20632;-78
2021/05/04 08:54:02;;;;;;;7.40;1.50;;;12.40;80.10;;;11.35;72.00;98653.09;4962974;28;20072;-79
2021/05/04 08:56:40;;;;;;;5.68;2.50;;;12.50;79.20;;;11.32;72.28;98664.44;4944126;29;20058;-78
2021/05/04 08:59:17;;;;;;;5.45;1.85;;;12.50;79.10;;;11.36;72.08;98653.91;4949923;29;20082;-77
2021/05/04 09:01:50;;;;;;;5.07;1.88;;;12.50;79.00;;;11.33;72.43;98649.78;4949759;29;20591;-76
2021/05/04 09:04:40;;;;;;;4.55;1.40;;;12.60;78.80;;;11.33;74.39;98665.28;4950002;29;20054;-78
2021/05/04 09:07:26;;;;;;;7.30;1.40;;;12.60;80.60;;;11.31;75.10;98676.41;4946866;28;20172;-78
2021/05/04 09:10:30;;;;;;;3.67;1.20;;;12.50;81.60;;;11.29;74.92;98681.25;4950097;29;20432;-78
2021/05/04 09:13:08;;;;;;;5.50;1.42;;;12.50;81.30;;;11.30;76.05;98676.63;4933564;29;20047;-78
2021/05/04 09:21:41;;;;;;;5.97;1.38;;;12.50;82.60;;;11.29;77.24;98678.53;4953279;29;20055;-78
2021/05/04 09:24:44;;;;;;;7.55;1.73;;;12.40;82.90;;;11.26;77.55;98675.44;4930666;29;20035;-78
2021/05/04 09:27:22;;;;;;;4.32;1.48;;;12.40;83.40;;;11.27;77.75;98677.94;4927706;29;20079;-78
2021/05/04 09:30:03;;;;;;;3.30;1.60;;;12.40;83.90;;;11.26;78.16;98689.88;4934169;29;20044;-77
2021/05/04 09:32:54;;;;;;;4.07;1.40;;;12.40;84.10;;;11.23;78.29;98717.59;4933791;29;20047;-78
2021/05/04 09:35:35;;;;;;;4.68;1.77;;;12.30;84.20;;;11.17;79.14;98683.13;4933892;29;20047;-78
2021/05/04 09:38:18;;;;;;;3.03;1.30;;;12.30;85.10;;;11.06;79.81;98665.72;4934288;29;20130;-78
2021/05/04 09:40:54;;;;;;;7.00;1.33;;;12.30;85.10;;;11.10;78.41;98674.22;4935201;29;20060;-78
2021/05/04 09:43:28;;;;;;;4.90;1.40;;;12.20;84.30;;;11.04;79.19;98667.84;4951352;29;20520;-78
2021/05/04 09:46:06;;;;;;;4.25;1.30;;;12.20;85.00;;;11.03;79.55;98649.03;4952917;29;20142;-78
2021/05/04 09:48:44;;;;;;;3.42;1.27;;;12.20;85.00;;;11.14;82.79;98643.59;4953012;29;20389;-78
2021/05/04 09:51:20;;;;;;;4.53;1.27;;;12.30;87.80;;;11.21;81.88;98651.63;4952934;29;20118;-78
2021/05/04 09:53:59;;;;;;;6.45;1.52;;;12.30;87.80;;;11.29;82.12;98643.13;4952811;29;20039;-78
2021/05/04 09:56:42;;;;;;;7.03;2.22;;;12.40;88.20;;;11.39;83.14;98655.34;4949131;29;20047;-78
2021/05/04 09:59:15;;;;;;;6.78;1.88;;;12.50;88.60;;;11.42;84.02;98654.84;4951877;28;20043;-78
2021/05/04 10:01:53;;;;;;;5.32;1.98;;;12.60;89.00;;;11.52;83.82;98644.22;4952584;28;20047;-78
2021/05/04 10:04:36;;;;;;;6.90;1.73;;;12.70;89.00;;;11.60;83.98;98632.97;4952701;28;20476;-78
2021/05/04 10:07:15;;;;;;;5.78;2.13;;;12.80;89.20;;;11.62;83.13;98652.63;4952686;28;20043;-78
2021/05/04 10:09:54;;;;;;;6.70;2.20;;;12.80;88.40;;;11.63;81.74;98643.38;4952494;29;20054;-78
2021/05/04 10:12:30;;;;;;;6.85;2.00;;;12.80;86.90;;;11.68;81.36;98627.13;4952278;29;20058;-78
2021/05/04 10:15:09;;;;;;;9.02;2.22;;;12.90;86.80;;;11.69;81.55;98609.72;4952319;29;20058;-78
2021/05/04 10:17:50;;;;;;;10.23;2.20;;;13.00;86.70;;;11.76;81.46;98611.50;4956369;29;20061;-76
2021/05/04 10:20:29;;;;;;;6.93;2.17;;;13.00;86.70;;;11.78;82.86;98620.25;4952587;29;20062;-76
2021/05/04 10:23:05;;;;;;;11.30;2.10;;;13.10;87.10;;;11.89;81.77;98649.41;4951792;28;20039;-77
2021/05/04 10:25:40;;;;;;;8.10;2.70;;;13.20;87.00;;;11.99;82.83;98625.09;4952174;29;20047;-78
2021/05/04 10:28:17;;;;;;;8.18;2.33;;;13.30;87.10;;;12.08;82.00;98631.03;4952316;29;20055;-77
2021/05/04 10:31:00;;;;;;;7.85;1.90;;;13.30;86.70;;;12.06;78.33;98601.25;4952303;29;20050;-77
2021/05/04 10:33:39;;;;;;;8.20;1.77;;;13.40;83.60;;;12.07;77.19;98615.72;4951955;29;20051;-77
2021/05/04 10:39:34;;;;;;;11.20;2.00;;;13.40;82.40;;;12.25;75.15;98590.19;5147944;27;20386;-77
2021/05/04 10:42:16;;;;;;;11.85;2.50;;;13.60;80.70;;;12.26;74.36;98597.28;5126435;27;20051;-78
2021/05/04 10:45:14;;;;;;;10.80;1.92;;;13.60;80.00;;;12.29;75.06;98608.53;5123463;27;21692;-78
2021/05/04 10:48:04;;;;;;;7.53;2.10;;;13.60;80.00;;;12.24;74.96;98626.69;5115818;28;20062;-78
2021/05/04 10:50:58;;;;;;;9.38;2.05;;;13.70;80.20;;;12.13;76.42;98686.50;5122945;27;20052;-78
2021/05/04 10:54:09;;;;;;;12.43;2.67;;;13.50;81.40;;;12.08;76.60;98667.28;5117924;28;20333;-78
2021/05/04 10:57:00;;;;;;;7.47;1.98;;;13.50;81.90;;;11.89;75.25;98669.31;5111403;28;20750;-78
2021/05/04 10:59:59;;;;;;;18.83;2.42;;;13.40;80.30;;;11.81;77.67;98666.13;5127023;27;20455;-78
2021/05/04 11:02:37;;;;;;;7.78;2.55;;;13.20;82.40;;;11.78;75.97;98675.59;5114433;27;20059;-78
2021/05/04 11:05:36;;;;;;;12.65;2.45;;;13.20;80.80;;;11.78;76.50;98688.38;5111070;28;20044;-78
2021/05/04 11:08:14;;;;;;;9.68;2.33;;;13.10;81.60;;;11.86;76.15;98685.28;5117684;27;20039;-78
2021/05/04 11:11:32;;;;;;;9.70;2.47;;;13.10;81.30;;;11.90;74.73;98684.63;5109977;28;20066;-78
2021/05/04 11:14:19;;;;;;;10.30;2.20;;;13.10;80.30;;;11.97;74.24;98692.66;5121241;27;20039;-78